Latest Weather Observations for Gooseberry Hill

IDW60801

Issued at 11:33 am WST Sunday 17 February 2019 (issued every 10 minutes, with the page automatically refreshed every 10 minutes)

About weather observations | Map of weather stations | Latest weather observations for WA | Other Formats
Station Details ID: 009204 Name: GOOSEBERRY HILL Lat: -31.94 Lon: 116.05 Height: 220.0 m
Data from the previous 72 hours. | See also: Recent months at Gooseberry Hill
Date/Time
WST
Temp
°C
App
Temp
°C
Dew
Point
°C
Rel
Hum
%
Delta-T
°C
Wind Press
QNH
hPa
Press
MSL
hPa
Rain since
9am
mm
Dir  Spd
km/h
Gust
km/h
Spd
kts
Gust
kts
17/11:30am 26.5 23.5 9.4 34 9.5 ENE 15 28 8 15 - - -
17/11:00am 25.0 21.3 10.1 39 8.3 E 20 30 11 16 - - -
17/10:30am 23.9 20.8 10.2 42 7.6 ENE 17 26 9 14 - - -
17/10:00am 23.2 18.8 10.3 44 7.2 E 24 39 13 21 - - -
17/09:30am 21.4 16.6 10.3 49 6.1 E 26 46 14 25 - - -
17/09:08am 20.7 15.7 11.1 54 5.3 E 28 46 15 25 - - -
17/09:00am 19.7 13.7 10.7 56 4.9 E 33 50 18 27 - - -
17/08:39am 19.7 14.2 10.7 56 4.9 ENE 30 50 16 27 - - -
17/08:30am 19.0 13.1 10.3 57 4.7 ENE 32 46 17 25 - - -
17/08:19am 18.9 13.8 10.5 58 4.6 ENE 28 46 15 25 - - -
17/08:00am 18.8 13.9 11.4 62 4.1 E 28 44 15 24 - - -
17/07:30am 17.7 10.6 11.0 65 3.7 E 39 61 21 33 - - -
17/07:00am 17.1 10.6 11.6 70 3.0 E 37 56 20 30 - - -
17/06:30am 16.6 9.8 12.0 74 2.5 E 39 65 21 35 - - -
17/06:09am 16.5 10.1 11.9 74 2.5 E 37 57 20 31 - - -
17/06:00am 16.5 11.1 12.1 75 2.4 E 32 50 17 27 - - -
17/05:30am 16.7 10.8 12.3 75 2.4 E 35 61 19 33 - - -
17/05:03am 16.7 10.5 12.5 76 2.3 E 37 57 20 31 - - -
17/05:00am 16.6 9.9 12.4 76 2.3 E 39 54 21 29 - - -
17/04:43am 16.7 10.5 12.5 76 2.3 E 37 57 20 31 - - -
17/04:30am 16.7 9.6 12.3 75 2.4 E 41 57 22 31 - - -
17/04:09am 16.9 11.0 12.4 75 2.5 E 35 54 19 29 - - -
17/04:00am 17.0 10.4 12.5 75 2.5 E 39 52 21 28 - - -
17/03:30am 17.5 11.3 12.8 74 2.6 E 37 57 20 31 - - -
17/03:00am 17.9 11.0 12.8 72 2.9 E 41 63 22 34 - - -
17/02:35am 18.3 12.9 12.7 70 3.2 E 33 54 18 29 - - -
17/02:30am 18.4 12.6 12.6 69 3.3 E 35 54 19 29 - - -
17/02:18am 18.6 12.8 12.6 68 3.4 E 35 56 19 30 - - -
17/02:00am 18.9 13.0 12.4 66 3.7 E 35 50 19 27 - - -
17/01:30am 19.4 13.1 12.4 64 4.0 ESE 37 57 20 31 - - -
17/01:04am 20.0 14.5 12.5 62 4.3 ESE 33 54 18 29 - - -
17/01:00am 20.1 14.7 12.3 61 4.4 ESE 32 46 17 25 - - -
17/12:30am 20.8 13.8 12.5 59 4.7 ESE 41 61 22 33 - - -
17/12:03am 21.3 16.0 12.4 57 5.1 ESE 32 50 17 27 - - -
17/12:00am 21.4 16.1 12.5 57 5.1 ESE 32 48 17 26 - - -
 
Date/Time
WST
Temp
°C
App
Temp
°C
Dew
Point
°C
Rel
Hum
%
Delta-T
°C
Wind Press
QNH
hPa
Press
MSL
hPa
Rain since
9am
mm
Dir  Spd
km/h
Gust
km/h
Spd
kts
Gust
kts
16/11:30pm 22.5 18.0 12.7 54 5.6 ESE 28 50 15 27 - - -
16/11:17pm 22.9 18.1 12.8 53 5.8 ESE 30 52 16 28 - - -
16/11:00pm 23.4 19.3 12.7 51 6.2 ESE 26 44 14 24 - - -
16/10:45pm 24.0 19.5 12.6 49 6.6 E 28 54 15 29 - - -
16/10:30pm 23.7 20.7 12.0 48 6.7 ESE 19 33 10 18 - - -
16/10:00pm 23.0 23.0 14.3 58 5.2 SSE 7 20 4 11 - - -
16/09:30pm 23.3 23.6 14.6 58 5.2 S 6 11 3 6 - - -
16/09:00pm 23.4 23.5 15.5 61 4.8 SSW 9 15 5 8 - - -
16/08:30pm 23.7 23.1 15.7 61 4.9 SSW 13 22 7 12 - - -
16/08:00pm 24.3 22.3 15.5 58 5.4 SSW 20 33 11 18 - - -
16/07:30pm 24.9 24.0 15.8 57 5.6 SW 15 24 8 13 - - -
16/07:00pm 25.6 25.1 15.9 55 6.0 SW 13 22 7 12 - - -
16/06:30pm 26.2 24.0 15.9 53 6.4 SW 22 32 12 17 - - -
16/06:00pm 27.0 23.6 15.7 50 7.0 SW 28 37 15 20 - - -
16/05:30pm 27.9 24.3 15.2 46 7.8 SW 28 43 15 23 - - -
16/05:00pm 28.4 23.8 14.6 43 8.4 SW 32 43 17 23 - - -
16/04:30pm 29.0 24.2 14.0 39 9.1 SW 32 44 17 24 - - -
16/04:00pm 30.1 25.7 14.2 38 9.7 SW 30 43 16 23 - - -
16/03:30pm 29.5 24.9 14.5 40 9.2 SW 32 43 17 23 - - -
16/03:00pm 30.8 27.3 14.4 36 10.1 WSW 26 37 14 20 - - -
16/02:30pm 30.6 27.7 15.1 39 9.6 WSW 24 35 13 19 - - -
16/02:00pm 29.4 26.9 15.1 41 8.8 SW 22 37 12 20 - - -
16/01:30pm 30.3 27.2 15.6 41 9.2 SW 26 39 14 21 - - -
16/01:00pm 30.5 27.9 13.3 35 10.4 WSW 19 33 10 18 - - -
16/12:30pm 29.8 27.3 13.5 36 9.8 SW 19 28 10 15 - - -
16/12:00pm 29.1 27.6 14.1 40 9.1 SW 15 22 8 12 - - -
16/11:30am 29.1 28.1 13.3 37 9.5 WSW 11 24 6 13 - - -
16/11:00am 29.2 29.3 13.8 39 9.3 WSW 6 13 3 7 - - -
16/10:30am 27.7 27.4 14.3 43 8.1 ENE 9 20 5 11 - - -
16/10:00am 26.5 25.7 13.9 45 7.5 ENE 11 26 6 14 - - -
16/09:30am 26.1 26.1 14.2 48 7.1 ENE 7 17 4 9 - - -
16/09:00am 24.4 24.3 13.9 52 6.2 E 7 15 4 8 - - -
16/08:30am 22.8 22.8 14.1 58 5.1 ENE 7 15 4 8 - - -
16/08:00am 20.7 21.7 15.3 71 3.2 NE 4 7 2 4 - - -
16/07:30am 19.1 20.0 15.0 77 2.4 ENE 4 7 2 4 - - -
16/07:00am 17.4 17.7 14.5 83 1.7 SSE 6 15 3 8 - - -
16/06:30am 17.3 17.3 14.2 82 1.8 SE 7 15 4 8 - - -
16/06:00am 17.0 17.3 14.5 85 1.4 S 6 11 3 6 - - -
16/05:30am 17.0 17.3 15.0 88 1.2 SSW 7 9 4 5 - - -
16/05:00am 17.5 17.8 15.0 85 1.5 SE 7 13 4 7 - - -
16/04:30am 17.2 18.5 16.2 94 0.6 ESE 4 7 2 4 - - -
16/04:00am 17.6 19.3 16.1 91 0.9 SE 2 2 1 1 - - -
16/03:30am 17.7 19.2 16.6 93 0.7 WSW 4 6 2 3 - - -
16/03:00am 17.8 19.5 16.3 91 0.9 ESE 2 4 1 2 - - -
16/02:30am 18.2 19.7 16.7 91 0.9 SSW 4 6 2 3 - - -
16/02:00am 18.4 19.9 16.7 90 1.0 SSW 4 6 2 3 - - -
16/01:30am 18.5 20.0 16.7 89 1.1 S 4 7 2 4 - - -
16/01:00am 18.7 20.0 17.2 91 0.9 SSW 6 9 3 5 - - -
16/12:30am 18.5 19.8 17.2 92 0.8 SSW 6 7 3 4 - - -
16/12:00am 18.4 20.0 16.9 91 0.9 SW 4 7 2 4 - - -
 
Date/Time
WST
Temp
°C
App
Temp
°C
Dew
Point
°C
Rel
Hum
%
Delta-T
°C
Wind Press
QNH
hPa
Press
MSL
hPa
Rain since
9am
mm
Dir  Spd
km/h
Gust
km/h
Spd
kts
Gust
kts
15/11:30pm 18.7 19.9 17.4 92 0.8 SW 7 11 4 6 - - -
15/11:00pm 18.8 20.2 17.3 91 0.9 SW 6 7 3 4 - - -
15/10:30pm 18.9 19.3 17.2 90 1.0 SW 11 17 6 9 - - -
15/10:00pm 19.0 18.6 17.1 89 1.2 SW 15 19 8 10 - - -
15/09:30pm 19.3 19.1 16.7 85 1.6 SW 13 19 7 10 - - -
15/09:00pm 19.6 19.7 16.6 83 1.8 SW 11 17 6 9 - - -
15/08:30pm 20.1 20.5 16.3 79 2.3 SW 9 13 5 7 - - -
15/08:00pm 20.7 21.0 16.1 75 2.8 SW 9 15 5 8 - - -
15/07:30pm 21.3 21.1 15.8 71 3.3 SW 11 17 6 9 - - -
15/07:00pm 21.9 20.9 15.5 67 3.9 SW 15 22 8 12 - - -
15/06:30pm 23.2 21.1 14.7 58 5.1 WSW 19 28 10 15 - - -
15/06:00pm 24.3 22.9 15.5 58 5.4 WSW 17 26 9 14 - - -
15/05:30pm 24.7 23.3 15.6 57 5.6 SW 17 26 9 14 - - -
15/05:00pm 25.7 24.1 15.1 52 6.4 SW 17 26 9 14 - - -
15/04:30pm 26.3 24.1 16.0 53 6.4 WSW 22 35 12 19 - - -
15/04:00pm 26.9 24.6 15.6 50 7.0 WSW 22 32 12 17 - - -
15/03:30pm 27.8 26.8 16.7 50 7.0 WSW 17 28 9 15 - - -
15/03:00pm 27.6 26.3 16.9 52 6.7 SW 19 28 10 15 - - -
15/02:30pm 27.9 26.5 16.5 50 7.1 WSW 19 30 10 16 - - -
15/02:00pm 27.6 25.9 17.2 53 6.6 WSW 22 32 12 17 - - -
15/01:30pm 27.5 25.6 15.2 47 7.5 WSW 19 28 10 15 - - -
15/01:00pm 27.9 27.0 16.8 50 7.0 W 17 24 9 13 - - -
15/12:30pm 28.7 27.8 16.9 48 7.5 W 17 24 9 13 - - -
15/12:00pm 27.8 26.7 16.4 50 7.1 W 17 24 9 13 - - -
15/11:30am 27.6 27.2 16.2 49 7.1 WSW 13 24 7 13 - - -
15/11:00am 26.9 26.9 16.2 52 6.6 WSW 11 19 6 10 - - -
15/10:30am 26.7 27.3 15.7 51 6.8 WNW 7 15 4 8 - - -
15/10:00am 25.6 26.2 15.9 55 6.0 WNW 7 13 4 7 - - -
15/09:30am 24.7 25.4 16.2 59 5.2 N 7 11 4 6 - - -
15/09:00am 23.2 23.7 15.0 60 4.9 ENE 6 9 3 5 - - -
15/08:30am 22.1 23.3 15.9 68 3.8 ENE 4 9 2 5 - - -
15/08:00am 19.5 20.4 16.0 80 2.1 ENE 6 7 3 4 - - -
15/07:30am 18.4 19.5 16.6 89 1.1 NE 6 7 3 4 - - -
15/07:00am 18.1 19.9 16.4 90 1.0 WNW 2 6 1 3 - - -
15/06:30am 17.7 19.2 16.7 94 0.6 W 4 7 2 4 - - -
15/06:00am 17.5 19.5 16.9 96 0.4 WSW 2 6 1 3 - - -
15/05:30am 17.4 19.0 16.9 97 0.3 WNW 4 7 2 4 - - -
15/05:00am 17.7 19.8 17.2 97 0.3 NNW 2 6 1 3 - - -
15/04:30am 17.3 19.1 16.5 95 0.5 NNW 2 6 1 3 - - -
15/04:00am 17.3 18.6 16.2 93 0.7 N 4 6 2 3 - - -
15/03:30am 17.5 18.8 16.2 92 0.8 N 4 6 2 3 - - -
15/03:00am 17.2 18.0 14.8 86 1.4 NNE 4 6 2 3 - - -
15/02:30am 18.3 19.5 16.8 91 0.9 W 6 7 3 4 - - -
15/02:00am 18.5 20.1 16.8 90 1.0 SW 4 6 2 3 - - -
15/01:30am 18.2 19.3 14.7 80 2.0 SW 2 4 1 2 - - -
15/01:00am 18.2 18.5 15.1 82 1.8 SE 7 9 4 5 - - -
15/12:30am 18.3 19.8 15.6 84 1.6 SSW 2 6 1 3 - - -
15/12:00am 18.6 18.0 15.7 83 1.7 SW 13 17 7 9 - - -
 
Date/Time
WST
Temp
°C
App
Temp
°C
Dew
Point
°C
Rel
Hum
%
Delta-T
°C
Wind Press
QNH
hPa
Press
MSL
hPa
Rain since
9am
mm
Dir  Spd
km/h
Gust
km/h
Spd
kts
Gust
kts
14/11:30pm 18.7 18.9 14.8 78 2.3 SW 7 7 4 4 - - -
14/11:00pm 19.3 20.0 14.6 74 2.8 SW 4 6 2 3 - - -
14/10:30pm 19.5 20.4 13.9 70 3.3 S 2 7 1 4 - - -
14/10:00pm 19.8 20.5 14.4 71 3.2 SW 4 6 2 3 - - -
14/09:30pm 20.2 19.4 15.2 73 3.0 SW 13 19 7 10 - - -
14/09:00pm 20.7 20.2 13.9 65 4.0 SW 9 13 5 7 - - -
14/08:30pm 21.1 20.8 13.3 61 4.5 SW 7 9 4 5 - - -
14/08:00pm 21.8 20.8 12.4 55 5.4 SW 9 13 5 7 - - -
14/07:30pm 22.9 20.8 12.5 52 6.0 SW 15 20 8 11 - - -
14/07:00pm 24.1 21.5 12.1 47 6.9 SW 17 24 9 13 - - -
14/06:30pm 25.7 22.7 11.8 42 8.0 SW 19 24 10 13 - - -
14/06:00pm 27.1 24.0 11.6 38 9.0 SW 19 26 10 14 - - -
14/05:30pm 27.7 24.2 10.9 35 9.6 WSW 20 30 11 16 - - -
14/05:00pm 28.6 24.7 9.3 30 10.8 WSW 20 32 11 17 - - -
14/04:30pm 28.9 24.0 8.6 28 11.3 SW 24 35 13 19 - - -
14/04:00pm 29.9 25.7 8.3 26 12.0 SW 20 33 11 18 - - -
14/03:30pm 29.7 24.7 8.2 26 11.9 WSW 24 35 13 19 - - -
14/03:00pm 31.0 27.0 6.8 22 13.2 WSW 17 28 9 15 - - -
14/02:30pm 30.9 26.7 7.4 23 12.9 WSW 19 33 10 18 - - -
14/02:00pm 31.1 27.2 8.8 25 12.5 WSW 19 30 10 16 - - -
14/01:30pm 31.1 28.0 11.5 30 11.5 WSW 19 30 10 16 - - -
14/01:00pm 30.5 28.3 13.3 35 10.4 SW 17 28 9 15 - - -
14/12:30pm 31.4 29.8 12.7 32 11.2 WSW 13 28 7 15 - - -
14/12:00pm 29.2 27.6 10.3 31 10.8 SW 9 20 5 11 - - -

Other Formats:

Comma delimited format used in spreadsheet applications
http://www.bom.gov.au/fwo/IDW60801/IDW60801.94615.axf

JavaScript Object Notation format (JSON) in row-major order
http://www.bom.gov.au/fwo/IDW60801/IDW60801.94615.json